Time;durP1;ratioP1;P1;durP2;ratioP2;P2;SDS_P1;SDS_P2;PMS_P1;PMS_P2;Temp;Humidity;BMP_temperature;BMP_pressure;BME280_temperature;BME280_humidity;BME280_pressure;Samples;Min_cycle;Max_cycle;Signal;HPM_P1;HPM_P2
2022/12/04 00:01:54;;;;;;;125.05;44.53;;;;;;;;;;5006048;28;20030;-75
2022/12/04 00:04:20;;;;;;;114.30;45.35;;;;;;;;;;5029486;28;20038;-76
2022/12/04 00:06:46;;;;;;;116.63;46.45;;;;;;;;;;5020335;28;20037;-75
2022/12/04 00:09:12;;;;;;;116.82;43.40;;;;;;;;;;5035305;28;20033;-76
2022/12/04 00:11:38;;;;;;;124.95;44.97;;;;;;;;;;5006642;28;20031;-73
2022/12/04 00:14:04;;;;;;;116.10;45.33;;;;;;;;;;5002401;28;20045;-73
2022/12/04 00:16:31;;;;;;;116.03;44.42;;;;;;;;;;5011214;28;20046;-73
2022/12/04 00:18:57;;;;;;;112.38;43.20;;;;;;;;;;5009515;28;20510;-73
2022/12/04 00:21:24;;;;;;;110.68;45.05;;;;;;;;;;4997955;28;20029;-74
2022/12/04 00:23:50;;;;;;;111.53;41.00;;;;;;;;;;5012999;28;20022;-73
2022/12/04 00:26:20;;;;;;;106.10;43.42;;;;;;;;;;5001153;28;20033;-73
2022/12/04 00:28:47;;;;;;;106.25;43.17;;;;;;;;;;4993277;28;20022;-72
2022/12/04 00:31:17;;;;;;;109.15;44.67;;;;;;;;;;5012576;28;20017;-74
2022/12/04 00:33:44;;;;;;;108.88;41.53;;;;;;;;;;5005808;28;20023;-73
2022/12/04 00:36:11;;;;;;;106.60;40.97;;;;;;;;;;4993392;28;20022;-73
2022/12/04 00:38:38;;;;;;;109.38;43.05;;;;;;;;;;5008071;28;20022;-73
2022/12/04 00:41:07;;;;;;;103.18;40.50;;;;;;;;;;5011090;28;20057;-73
2022/12/04 00:43:33;;;;;;;110.32;44.55;;;;;;;;;;4992502;28;20112;-74
2022/12/04 00:45:59;;;;;;;103.20;40.25;;;;;;;;;;5003271;28;20460;-74
2022/12/04 00:48:25;;;;;;;96.60;38.95;;;;;;;;;;4999816;28;20029;-75
2022/12/04 00:50:52;;;;;;;106.32;43.28;;;;;;;;;;5009945;28;20026;-73
2022/12/04 00:53:19;;;;;;;90.53;41.08;;;;;;;;;;4997249;28;20029;-72
2022/12/04 00:55:45;;;;;;;98.55;41.63;;;;;;;;;;5012433;28;20034;-72
2022/12/04 00:58:11;;;;;;;96.60;39.45;;;;;;;;;;5001149;28;20035;-73
2022/12/04 01:00:38;;;;;;;101.55;40.25;;;;;;;;;;5007295;28;20342;-72
2022/12/04 01:03:06;;;;;;;97.10;39.63;;;;;;;;;;4995979;28;20488;-69
2022/12/04 01:05:37;;;;;;;99.47;40.50;;;;;;;;;;5013102;28;20076;-72
2022/12/04 01:08:03;;;;;;;96.75;40.22;;;;;;;;;;5001826;28;20099;-73
2022/12/04 01:10:29;;;;;;;96.78;38.85;;;;;;;;;;5005984;28;20117;-72
2022/12/04 01:12:55;;;;;;;102.32;42.22;;;;;;;;;;4995725;28;20105;-73
2022/12/04 01:15:21;;;;;;;101.63;41.05;;;;;;;;;;5007319;28;20464;-73
2022/12/04 01:17:47;;;;;;;100.82;42.25;;;;;;;;;;5005513;28;20030;-73
2022/12/04 01:20:13;;;;;;;105.20;40.97;;;;;;;;;;5000427;28;20037;-73
2022/12/04 01:22:39;;;;;;;96.95;38.80;;;;;;;;;;5007422;28;20435;-73
2022/12/04 01:25:06;;;;;;;105.15;42.30;;;;;;;;;;4995585;28;20106;-73
2022/12/04 01:27:32;;;;;;;104.93;41.72;;;;;;;;;;5005863;28;20030;-73
2022/12/04 01:29:58;;;;;;;109.60;43.22;;;;;;;;;;5002007;28;20033;-73
2022/12/04 01:32:24;;;;;;;105.93;43.40;;;;;;;;;;4999218;28;20031;-73
2022/12/04 01:34:51;;;;;;;111.10;42.67;;;;;;;;;;5008718;28;20030;-74
2022/12/04 01:37:17;;;;;;;102.45;42.55;;;;;;;;;;4996206;28;20104;-72
2022/12/04 01:39:43;;;;;;;104.13;42.20;;;;;;;;;;5012169;28;20124;-73
2022/12/04 01:42:12;;;;;;;110.45;44.30;;;;;;;;;;5001285;28;20025;-73
2022/12/04 01:44:41;;;;;;;107.55;44.70;;;;;;;;;;5006724;28;20018;-75
2022/12/04 01:47:09;;;;;;;103.47;43.53;;;;;;;;;;4995375;28;20026;-71
2022/12/04 01:49:35;;;;;;;105.55;42.88;;;;;;;;;;5005639;28;20034;-73
2022/12/04 01:52:06;;;;;;;104.63;43.13;;;;;;;;;;5000570;28;20033;-73
2022/12/04 01:54:35;;;;;;;104.13;44.50;;;;;;;;;;5012049;28;20034;-75
2022/12/04 01:57:10;;;;;;;108.30;43.17;;;;;;;;;;4995313;28;20504;-73
2022/12/04 01:59:39;;;;;;;104.45;43.35;;;;;;;;;;5005652;28;20026;-73
2022/12/04 02:02:10;;;;;;;96.90;41.85;;;;;;;;;;5003015;28;20072;-72
2022/12/04 02:04:36;;;;;;;116.15;44.55;;;;;;;;;;4997338;28;20113;-73
2022/12/04 02:07:03;;;;;;;101.90;42.03;;;;;;;;;;5008749;28;20065;-73
2022/12/04 02:09:30;;;;;;;108.55;43.10;;;;;;;;;;5011781;28;20508;-74
2022/12/04 02:11:56;;;;;;;101.45;40.33;;;;;;;;;;5002932;28;20030;-74
2022/12/04 02:14:28;;;;;;;92.85;39.00;;;;;;;;;;5004937;28;20037;-73
2022/12/04 02:17:16;;;;;;;105.70;42.10;;;;;;;;;;5000380;28;20041;-73
2022/12/04 02:19:54;;;;;;;101.75;41.03;;;;;;;;;;5004983;28;20073;-74
2022/12/04 02:22:38;;;;;;;99.00;40.90;;;;;;;;;;4994665;28;20023;-72
2022/12/04 02:25:07;;;;;;;88.03;38.72;;;;;;;;;;5014252;28;20022;-73
2022/12/04 02:27:39;;;;;;;92.25;39.30;;;;;;;;;;5002777;28;20026;-75
2022/12/04 02:30:06;;;;;;;94.13;40.22;;;;;;;;;;5005014;28;20034;-72
2022/12/04 02:32:44;;;;;;;96.25;41.83;;;;;;;;;;5009983;28;20400;-72
2022/12/04 02:35:19;;;;;;;95.47;38.55;;;;;;;;;;5011423;28;20022;-72
2022/12/04 02:37:47;;;;;;;92.63;40.55;;;;;;;;;;5004246;28;20064;-73
2022/12/04 02:40:13;;;;;;;92.40;39.88;;;;;;;;;;5003797;28;20113;-73
2022/12/04 02:42:44;;;;;;;90.30;39.92;;;;;;;;;;5010744;28;20042;-73
2022/12/04 02:45:13;;;;;;;99.45;41.42;;;;;;;;;;4998277;28;20040;-73
2022/12/04 02:47:40;;;;;;;94.88;42.15;;;;;;;;;;5007558;28;20026;-73
2022/12/04 02:50:07;;;;;;;98.22;39.90;;;;;;;;;;5005352;28;20105;-74
2022/12/04 02:52:36;;;;;;;89.35;40.47;;;;;;;;;;5000524;28;20397;-74
2022/12/04 02:55:04;;;;;;;95.60;41.50;;;;;;;;;;5011291;28;20030;-73
2022/12/04 02:57:33;;;;;;;104.47;43.65;;;;;;;;;;5000522;28;20022;-73
2022/12/04 03:00:01;;;;;;;100.22;42.97;;;;;;;;;;5004849;28;20037;-73
2022/12/04 03:02:27;;;;;;;97.45;41.58;;;;;;;;;;5008173;28;20513;-72
2022/12/04 03:04:55;;;;;;;91.20;40.03;;;;;;;;;;4997586;28;20022;-73
2022/12/04 03:07:28;;;;;;;106.18;41.85;;;;;;;;;;4999179;28;20021;-73
2022/12/04 03:09:56;;;;;;;105.50;44.50;;;;;;;;;;5007397;28;20109;-74
2022/12/04 03:12:27;;;;;;;96.18;42.25;;;;;;;;;;5005380;28;20025;-74
2022/12/04 03:15:07;;;;;;;99.85;43.53;;;;;;;;;;5005912;28;20103;-75
2022/12/04 03:17:37;;;;;;;88.22;35.50;;;;;;;;;;4999782;28;20034;-74
2022/12/04 03:20:05;;;;;;;96.03;42.78;;;;;;;;;;5003787;28;20109;-74
2022/12/04 03:22:33;;;;;;;92.18;41.13;;;;;;;;;;4999975;28;20402;-73
2022/12/04 03:24:59;;;;;;;95.60;41.45;;;;;;;;;;5010950;28;20384;-74
2022/12/04 03:27:42;;;;;;;94.60;41.83;;;;;;;;;;4999542;28;20018;-74
2022/12/04 03:30:10;;;;;;;90.63;41.50;;;;;;;;;;5003264;28;20030;-75
2022/12/04 03:32:48;;;;;;;107.35;43.33;;;;;;;;;;5008941;28;20025;-74
2022/12/04 03:35:38;;;;;;;100.40;43.70;;;;;;;;;;4997939;28;20092;-73
2022/12/04 03:38:11;;;;;;;92.18;42.70;;;;;;;;;;5003762;28;20109;-73
2022/12/04 03:40:37;;;;;;;86.47;39.35;;;;;;;;;;4994712;28;20027;-74
2022/12/04 03:43:08;;;;;;;91.75;41.28;;;;;;;;;;5012235;28;20033;-73
2022/12/04 03:45:50;;;;;;;100.32;41.30;;;;;;;;;;5010011;28;20056;-74
2022/12/04 03:48:24;;;;;;;95.50;40.88;;;;;;;;;;5005104;28;20032;-75
2022/12/04 03:50:50;;;;;;;96.50;42.95;;;;;;;;;;4995906;28;20026;-74
2022/12/04 03:53:18;;;;;;;94.47;43.63;;;;;;;;;;4997296;28;20044;-75
2022/12/04 03:56:13;;;;;;;95.45;41.65;;;;;;;;;;5007509;28;20061;-74
2022/12/04 03:58:43;;;;;;;89.70;41.90;;;;;;;;;;5007995;28;20045;-74
2022/12/04 04:01:10;;;;;;;94.97;41.20;;;;;;;;;;5004341;28;20034;-74
2022/12/04 04:03:39;;;;;;;93.65;41.05;;;;;;;;;;5015541;28;20026;-74
2022/12/04 04:06:12;;;;;;;93.25;43.55;;;;;;;;;;5011062;28;20022;-74
2022/12/04 04:08:40;;;;;;;100.13;42.92;;;;;;;;;;5003305;28;20050;-74
2022/12/04 04:11:21;;;;;;;96.82;43.53;;;;;;;;;;5009932;28;20030;-74
2022/12/04 04:24:57;;;;;;;89.10;39.88;;;;;;;;;;5010768;28;20037;-74
2022/12/04 04:27:23;;;;;;;86.57;41.15;;;;;;;;;;5009252;28;20499;-74
2022/12/04 04:29:50;;;;;;;90.40;40.33;;;;;;;;;;5002733;28;20030;-74
2022/12/04 04:32:20;;;;;;;95.32;41.92;;;;;;;;;;5001528;28;20034;-74
2022/12/04 04:35:01;;;;;;;93.82;42.78;;;;;;;;;;5009295;28;20030;-74
2022/12/04 04:37:43;;;;;;;91.13;41.08;;;;;;;;;;4998793;28;20018;-74
2022/12/04 04:40:09;;;;;;;;;;;;;;;;;;5001332;28;20104;-74
2022/12/04 04:42:35;;;;;;;94.07;39.47;;;;;;;;;;5007505;28;20360;-74
2022/12/04 04:45:05;;;;;;;98.93;42.30;;;;;;;;;;5010348;28;20029;-74
2022/12/04 04:47:33;;;;;;;90.60;41.22;;;;;;;;;;4998596;28;20076;-75
2022/12/04 04:50:01;;;;;;;88.70;41.03;;;;;;;;;;5012635;28;20025;-74
2022/12/04 04:52:28;;;;;;;92.32;40.88;;;;;;;;;;5012991;28;20033;-74
2022/12/04 04:54:54;;;;;;;89.65;41.30;;;;;;;;;;4996954;28;20101;-74
2022/12/04 04:57:27;;;;;;;88.18;41.88;;;;;;;;;;5012862;28;20026;-75
2022/12/04 04:59:53;;;;;;;90.90;41.85;;;;;;;;;;5004454;28;20031;-73
2022/12/04 05:02:19;;;;;;;86.95;39.90;;;;;;;;;;4993617;28;20033;-75
2022/12/04 05:04:45;;;;;;;89.47;40.30;;;;;;;;;;5009276;28;20034;-74
2022/12/04 05:07:11;;;;;;;90.22;40.70;;;;;;;;;;4996035;28;20022;-75
2022/12/04 05:09:37;;;;;;;87.32;39.90;;;;;;;;;;5012350;28;20492;-74
2022/12/04 05:12:03;;;;;;;92.55;43.05;;;;;;;;;;5002306;28;20023;-75
2022/12/04 05:14:29;;;;;;;86.47;42.58;;;;;;;;;;5006199;28;20041;-74
2022/12/04 05:16:55;;;;;;;90.55;40.78;;;;;;;;;;4999986;28;20080;-74
2022/12/04 05:22:06;;;;;;;85.07;40.15;;;;;;;;;;5001850;28;20032;-74
2022/12/04 05:24:32;;;;;;;84.10;41.13;;;;;;;;;;5006577;28;20403;-74
2022/12/04 05:26:58;;;;;;;85.97;41.05;;;;;;;;;;4995603;28;20018;-73
2022/12/04 05:29:24;;;;;;;84.70;40.85;;;;;;;;;;5007143;28;20029;-74
2022/12/04 05:31:50;;;;;;;95.25;44.25;;;;;;;;;;4992532;28;20030;-75
2022/12/04 05:34:16;;;;;;;82.82;39.65;;;;;;;;;;5004422;28;20104;-75
2022/12/04 05:36:42;;;;;;;85.68;41.75;;;;;;;;;;4997582;28;20026;-76
2022/12/04 05:39:08;;;;;;;85.50;38.17;;;;;;;;;;5010567;28;20365;-74
2022/12/04 05:41:34;;;;;;;84.95;41.53;;;;;;;;;;5001879;28;20307;-74
2022/12/04 05:44:03;;;;;;;80.93;38.42;;;;;;;;;;5005013;28;20035;-73
2022/12/04 05:46:29;;;;;;;89.32;41.08;;;;;;;;;;5008749;28;20029;-74
2022/12/04 05:48:54;;;;;;;85.75;41.45;;;;;;;;;;4998972;28;20022;-75
2022/12/04 05:51:20;;;;;;;86.15;42.05;;;;;;;;;;5012524;28;20029;-75
2022/12/04 05:53:46;;;;;;;91.53;42.25;;;;;;;;;;5013606;28;20053;-74
2022/12/04 05:56:12;;;;;;;89.28;40.67;;;;;;;;;;5002024;28;20026;-75
2022/12/04 05:58:38;;;;;;;83.95;39.72;;;;;;;;;;5012697;28;20024;-74
2022/12/04 06:01:08;;;;;;;87.57;41.13;;;;;;;;;;5000566;28;20022;-74
2022/12/04 06:03:34;;;;;;;82.82;39.75;;;;;;;;;;5011895;28;20018;-73
2022/12/04 06:06:00;;;;;;;86.03;39.15;;;;;;;;;;5005833;28;20045;-74
2022/12/04 06:08:26;;;;;;;88.10;40.67;;;;;;;;;;5002276;28;20061;-74
2022/12/04 06:10:52;;;;;;;85.05;41.13;;;;;;;;;;5012249;28;20113;-75
2022/12/04 06:13:18;;;;;;;81.80;40.67;;;;;;;;;;5000239;28;20022;-75
2022/12/04 06:15:44;;;;;;;91.72;43.53;;;;;;;;;;5009467;28;20096;-75
2022/12/04 06:18:10;;;;;;;87.20;40.38;;;;;;;;;;5001061;28;20030;-75
2022/12/04 06:20:36;;;;;;;87.43;43.47;;;;;;;;;;5011049;28;20060;-75
2022/12/04 06:23:02;;;;;;;89.30;43.55;;;;;;;;;;5002350;28;20022;-75
2022/12/04 06:25:29;;;;;;;92.32;43.33;;;;;;;;;;5017200;28;20015;-75
2022/12/04 06:27:55;;;;;;;89.50;42.90;;;;;;;;;;5011268;28;20081;-76
2022/12/04 06:30:21;;;;;;;91.03;44.78;;;;;;;;;;5005841;28;20026;-76
2022/12/04 06:32:47;;;;;;;88.38;40.72;;;;;;;;;;5012620;28;20034;-75
2022/12/04 06:35:13;;;;;;;84.57;39.85;;;;;;;;;;4999429;28;20042;-74
2022/12/04 06:37:39;;;;;;;87.70;42.83;;;;;;;;;;5015509;28;20022;-74
2022/12/04 06:40:05;;;;;;;86.30;42.33;;;;;;;;;;5004964;28;20058;-74
2022/12/04 06:42:31;;;;;;;83.55;39.75;;;;;;;;;;5009468;28;20084;-74
2022/12/04 06:44:57;;;;;;;88.88;42.42;;;;;;;;;;4998476;28;20022;-74
2022/12/04 06:47:23;;;;;;;93.13;43.08;;;;;;;;;;5010186;28;20171;-74
2022/12/04 06:49:50;;;;;;;93.85;45.00;;;;;;;;;;4995718;28;20022;-74
2022/12/04 06:52:16;;;;;;;93.72;44.70;;;;;;;;;;5007108;28;20085;-76
2022/12/04 06:54:42;;;;;;;92.75;44.20;;;;;;;;;;5014620;28;20045;-75
2022/12/04 06:57:08;;;;;;;95.35;44.20;;;;;;;;;;4998387;28;20027;-76
2022/12/04 06:59:34;;;;;;;102.00;45.80;;;;;;;;;;5009027;28;20033;-75
2022/12/04 07:02:00;;;;;;;94.80;43.72;;;;;;;;;;5004893;28;20026;-75
2022/12/04 07:04:26;;;;;;;94.00;43.95;;;;;;;;;;5001948;28;20319;-75
2022/12/04 07:06:53;;;;;;;97.05;43.88;;;;;;;;;;5011065;28;20022;-75
2022/12/04 07:09:19;;;;;;;87.40;42.88;;;;;;;;;;4998577;28;20018;-75
2022/12/04 07:11:45;;;;;;;85.43;41.08;;;;;;;;;;5007076;28;20030;-75
2022/12/04 07:14:12;;;;;;;94.00;43.60;;;;;;;;;;5006633;28;20088;-75
2022/12/04 07:16:38;;;;;;;86.68;41.20;;;;;;;;;;5003723;28;20026;-72
2022/12/04 07:19:04;;;;;;;107.07;48.95;;;;;;;;;;4999603;28;20065;-75
2022/12/04 07:21:33;;;;;;;94.43;43.80;;;;;;;;;;5009634;28;20092;-73
2022/12/04 07:24:00;;;;;;;92.80;42.78;;;;;;;;;;5004484;28;20022;-74
2022/12/04 07:26:27;;;;;;;92.45;44.08;;;;;;;;;;5001515;28;20034;-74
2022/12/04 07:28:53;;;;;;;91.90;46.67;;;;;;;;;;5011243;28;20586;-74
2022/12/04 07:31:21;;;;;;;95.15;46.47;;;;;;;;;;4999245;28;20018;-74
2022/12/04 07:33:47;;;;;;;85.05;42.92;;;;;;;;;;5006732;28;20124;-73
2022/12/04 07:36:15;;;;;;;92.22;46.05;;;;;;;;;;5005709;28;20029;-75
2022/12/04 07:38:41;;;;;;;94.10;44.35;;;;;;;;;;4999188;28;20500;-74
2022/12/04 07:41:08;;;;;;;85.57;42.90;;;;;;;;;;4997188;28;20030;-76
2022/12/04 07:43:34;;;;;;;88.82;43.72;;;;;;;;;;5008123;28;20049;-73
2022/12/04 07:46:04;;;;;;;79.55;40.63;;;;;;;;;;5003990;28;20075;-73
2022/12/04 07:48:30;;;;;;;95.35;45.20;;;;;;;;;;5000618;28;20023;-73
2022/12/04 07:51:09;;;;;;;93.90;46.90;;;;;;;;;;5011349;28;20141;-73
2022/12/04 07:53:36;;;;;;;94.55;44.70;;;;;;;;;;5013993;28;20030;-71
2022/12/04 07:56:03;;;;;;;93.15;45.78;;;;;;;;;;5003990;28;20041;-73
2022/12/04 07:58:29;;;;;;;96.22;45.88;;;;;;;;;;5008394;28;20042;-72
2022/12/04 08:00:57;;;;;;;89.35;44.42;;;;;;;;;;4997686;28;20030;-74
2022/12/04 08:03:24;;;;;;;94.22;45.35;;;;;;;;;;5010333;28;20521;-75
2022/12/04 08:05:50;;;;;;;101.70;45.83;;;;;;;;;;5003080;28;20032;-75
2022/12/04 08:08:16;;;;;;;90.55;44.97;;;;;;;;;;5001738;28;20463;-74
2022/12/04 08:10:42;;;;;;;87.35;44.33;;;;;;;;;;5009762;28;20032;-74
2022/12/04 08:13:08;;;;;;;91.22;44.92;;;;;;;;;;4997914;28;20026;-75
2022/12/04 08:15:34;;;;;;;95.10;45.50;;;;;;;;;;5008139;28;20130;-75
2022/12/04 08:18:00;;;;;;;87.15;43.38;;;;;;;;;;4999133;28;20385;-74
2022/12/04 08:20:26;;;;;;;86.47;45.40;;;;;;;;;;5007395;28;20026;-81
2022/12/04 08:22:53;;;;;;;93.57;44.25;;;;;;;;;;4997821;28;20018;-75
2022/12/04 08:25:19;;;;;;;94.45;44.90;;;;;;;;;;5009383;28;20026;-75
2022/12/04 08:27:46;;;;;;;86.40;44.55;;;;;;;;;;4999950;28;20030;-74
2022/12/04 08:30:12;;;;;;;84.63;43.70;;;;;;;;;;5013428;28;20099;-72
2022/12/04 08:32:38;;;;;;;84.93;41.88;;;;;;;;;;4998065;28;20023;-71
2022/12/04 08:35:05;;;;;;;93.40;46.45;;;;;;;;;;5009247;28;20048;-73
2022/12/04 08:37:30;;;;;;;83.28;44.40;;;;;;;;;;4998843;28;20037;-73
2022/12/04 08:39:57;;;;;;;80.43;42.15;;;;;;;;;;5003420;28;20031;-73
2022/12/04 08:42:23;;;;;;;79.82;44.08;;;;;;;;;;5006038;28;20037;-73
2022/12/04 08:44:49;;;;;;;89.22;44.45;;;;;;;;;;4996734;28;20097;-74
2022/12/04 08:47:15;;;;;;;80.95;43.67;;;;;;;;;;5008802;28;20022;-75
2022/12/04 08:49:41;;;;;;;84.60;45.55;;;;;;;;;;5000587;28;20022;-73
2022/12/04 08:52:07;;;;;;;84.45;43.35;;;;;;;;;;5001909;28;20541;-74
2022/12/04 08:54:33;;;;;;;77.15;42.60;;;;;;;;;;5007083;28;20088;-74
2022/12/04 08:56:59;;;;;;;79.32;43.92;;;;;;;;;;5010706;28;20136;-74
2022/12/04 08:59:26;;;;;;;83.28;44.47;;;;;;;;;;4997809;28;20021;-74
2022/12/04 09:01:52;;;;;;;83.50;44.15;;;;;;;;;;5003941;28;20033;-74
2022/12/04 09:04:18;;;;;;;76.75;40.85;;;;;;;;;;5005136;28;20064;-75
2022/12/04 09:06:44;;;;;;;84.00;44.10;;;;;;;;;;4996871;28;20018;-75
2022/12/04 09:09:11;;;;;;;82.95;43.17;;;;;;;;;;5011821;28;20022;-75
2022/12/04 09:11:37;;;;;;;85.82;46.22;;;;;;;;;;5005822;28;20030;-74
2022/12/04 09:14:03;;;;;;;85.57;46.15;;;;;;;;;;5003382;28;20385;-74
2022/12/04 09:16:29;;;;;;;84.40;43.50;;;;;;;;;;4998606;28;20121;-74
2022/12/04 09:18:56;;;;;;;83.55;45.33;;;;;;;;;;5009448;28;20026;-75
2022/12/04 09:21:23;;;;;;;78.05;42.60;;;;;;;;;;5007616;28;20116;-75
2022/12/04 09:23:49;;;;;;;83.20;45.88;;;;;;;;;;4999422;28;20026;-72
2022/12/04 09:26:17;;;;;;;83.47;45.08;;;;;;;;;;5012137;28;20033;-74
2022/12/04 09:28:44;;;;;;;78.15;44.22;;;;;;;;;;5008875;28;20026;-74
2022/12/04 09:31:10;;;;;;;77.85;43.00;;;;;;;;;;5000408;28;20022;-75
2022/12/04 09:33:36;;;;;;;80.22;42.13;;;;;;;;;;4990848;28;20081;-75
2022/12/04 09:36:02;;;;;;;79.15;44.08;;;;;;;;;;5000323;28;20476;-74
2022/12/04 09:38:28;;;;;;;80.30;45.67;;;;;;;;;;5003390;28;20072;-74
2022/12/04 09:40:57;;;;;;;78.18;42.55;;;;;;;;;;5010148;28;20122;-75
2022/12/04 09:43:42;;;;;;;81.07;42.60;;;;;;;;;;5001899;28;20472;-74
2022/12/04 09:46:11;;;;;;;78.68;44.03;;;;;;;;;;5008289;28;20102;-74
2022/12/04 09:48:40;;;;;;;79.53;44.20;;;;;;;;;;5002828;28;20108;-76
2022/12/04 09:51:17;;;;;;;87.03;44.72;;;;;;;;;;5003060;28;20427;-75
2022/12/04 09:54:01;;;;;;;83.70;43.80;;;;;;;;;;5005101;28;20034;-76
2022/12/04 09:56:29;;;;;;;80.13;44.58;;;;;;;;;;5004996;28;20022;-76
2022/12/04 09:58:59;;;;;;;80.63;43.55;;;;;;;;;;4993416;28;20033;-75
2022/12/04 10:01:41;;;;;;;72.05;40.53;;;;;;;;;;5014225;28;20018;-75
2022/12/04 10:04:11;;;;;;;86.13;44.95;;;;;;;;;;5002409;28;20042;-77
2022/12/04 10:06:56;;;;;;;75.32;42.63;;;;;;;;;;5006612;28;20018;-76
2022/12/04 10:09:26;;;;;;;85.28;44.80;;;;;;;;;;5005675;28;20428;-76
2022/12/04 10:11:59;;;;;;;77.25;42.25;;;;;;;;;;5002817;28;20037;-76
2022/12/04 10:14:43;;;;;;;86.15;45.58;;;;;;;;;;4998627;28;20053;-75
2022/12/04 10:17:12;;;;;;;78.70;42.47;;;;;;;;;;4997430;28;20564;-75
2022/12/04 10:19:50;;;;;;;80.50;43.03;;;;;;;;;;5006930;28;20044;-80
2022/12/04 10:22:16;;;;;;;81.13;43.00;;;;;;;;;;5022335;28;20034;-80
2022/12/04 10:24:42;;;;;;;74.70;41.10;;;;;;;;;;5031788;28;20014;-78
2022/12/04 10:27:11;;;;;;;78.80;41.72;;;;;;;;;;5022809;28;20041;-74
2022/12/04 10:29:38;;;;;;;82.45;42.50;;;;;;;;;;5003421;28;20062;-75
2022/12/04 10:32:14;;;;;;;80.00;43.42;;;;;;;;;;4999483;28;20026;-76
2022/12/04 10:34:41;;;;;;;82.75;45.00;;;;;;;;;;5001796;28;20022;-76
2022/12/04 10:37:12;;;;;;;81.78;46.20;;;;;;;;;;5004391;28;20499;-74
2022/12/04 10:39:44;;;;;;;79.25;42.03;;;;;;;;;;5009666;28;20026;-76
2022/12/04 10:42:12;;;;;;;83.38;43.60;;;;;;;;;;4997842;28;20018;-76
2022/12/04 10:44:38;;;;;;;71.70;41.08;;;;;;;;;;5013664;28;20022;-76
2022/12/04 10:47:05;;;;;;;83.03;44.65;;;;;;;;;;5001052;28;20029;-74
2022/12/04 10:49:35;;;;;;;79.85;43.83;;;;;;;;;;5010881;28;20033;-76
2022/12/04 10:52:01;;;;;;;79.22;43.50;;;;;;;;;;5014471;28;20017;-76
2022/12/04 10:54:35;;;;;;;76.35;41.97;;;;;;;;;;5008036;28;20508;-75
2022/12/04 10:57:00;;;;;;;90.55;47.92;;;;;;;;;;5007163;28;20083;-77
2022/12/04 10:59:27;;;;;;;76.60;43.38;;;;;;;;;;5015454;28;20034;-73
2022/12/04 11:01:59;;;;;;;75.70;42.67;;;;;;;;;;5004750;28;20022;-75
2022/12/04 11:04:26;;;;;;;83.47;43.20;;;;;;;;;;5002859;28;20101;-74
2022/12/04 11:07:01;;;;;;;73.65;42.10;;;;;;;;;;5003818;28;20034;-74
2022/12/04 11:09:28;;;;;;;72.75;41.67;;;;;;;;;;4995256;28;20137;-76
2022/12/04 11:12:06;;;;;;;72.65;42.85;;;;;;;;;;5014336;28;20045;-75
2022/12/04 11:14:32;;;;;;;71.43;40.33;;;;;;;;;;5005726;28;20042;-75
2022/12/04 11:17:03;;;;;;;78.28;43.30;;;;;;;;;;5005756;28;20040;-75
2022/12/04 11:19:35;;;;;;;82.93;46.40;;;;;;;;;;5013490;28;20026;-77
2022/12/04 11:22:01;;;;;;;;;;;;;;;;;;4998663;28;20423;-75
2022/12/04 11:24:34;;;;;;;77.60;41.03;;;;;;;;;;5007911;28;19905;-72
2022/12/04 11:27:00;;;;;;;78.28;41.00;;;;;;;;;;5006240;28;20026;-74
2022/12/04 11:29:35;;;;;;;70.55;41.15;;;;;;;;;;5014185;28;20163;-75
2022/12/04 11:32:01;;;;;;;79.97;44.05;;;;;;;;;;4997381;28;20563;-77
2022/12/04 11:34:34;;;;;;;74.35;42.17;;;;;;;;;;5013695;28;20401;-77
2022/12/04 11:37:00;;;;;;;76.65;42.38;;;;;;;;;;5005125;28;20117;-76
2022/12/04 11:39:29;;;;;;;68.38;39.75;;;;;;;;;;5000100;28;20022;-76
2022/12/04 11:41:59;;;;;;;76.95;42.78;;;;;;;;;;4999330;28;20017;-74
2022/12/04 11:44:29;;;;;;;73.35;41.85;;;;;;;;;;5019934;28;20025;-77
2022/12/04 11:46:56;;;;;;;71.22;40.22;;;;;;;;;;5006068;28;20042;-76
2022/12/04 11:49:22;;;;;;;76.55;45.03;;;;;;;;;;4999710;28;20023;-78
2022/12/04 11:51:57;;;;;;;72.65;41.70;;;;;;;;;;5028987;28;20036;-80
2022/12/04 11:54:29;;;;;;;73.90;42.38;;;;;;;;;;5023780;28;20085;-77
2022/12/04 11:57:00;;;;;;;73.18;42.55;;;;;;;;;;5009104;28;20033;-76
2022/12/04 11:59:26;;;;;;;;;;;;;;;;;;5011169;28;20392;-77
2022/12/04 12:02:11;;;;;;;74.70;40.83;;;;;;;;;;4995131;28;19916;-76
2022/12/04 12:04:56;;;;;;;77.22;43.33;;;;;;;;;;5013016;28;20522;-75
2022/12/04 12:07:31;;;;;;;72.72;41.00;;;;;;;;;;4998877;28;20081;-75
2022/12/04 12:10:11;;;;;;;80.10;45.75;;;;;;;;;;4997226;28;20441;-77
2022/12/04 12:12:37;;;;;;;68.53;39.72;;;;;;;;;;5015204;28;20038;-75
2022/12/04 12:15:15;;;;;;;67.28;39.33;;;;;;;;;;5021211;28;20030;-76
2022/12/04 12:17:45;;;;;;;72.20;42.40;;;;;;;;;;5039483;23;20068;-76
2022/12/04 12:20:16;;;;;;;74.15;41.00;;;;;;;;;;4994963;28;20515;-76
2022/12/04 12:22:42;;;;;;;;;;;;;;;;;;5012234;28;20026;-77
2022/12/04 12:25:12;;;;;;;70.80;41.08;;;;;;;;;;5013376;28;20236;-76
2022/12/04 12:27:49;;;;;;;74.03;43.28;;;;;;;;;;4994122;28;20023;-77
2022/12/04 12:30:19;;;;;;;72.20;40.83;;;;;;;;;;4993591;28;20492;-79
2022/12/04 12:32:54;;;;;;;77.30;42.33;;;;;;;;;;4991997;28;20088;-78
2022/12/04 12:35:26;;;;;;;67.47;39.97;;;;;;;;;;5006770;28;20288;-77
2022/12/04 12:37:59;;;;;;;75.07;42.17;;;;;;;;;;5011555;28;20537;-76
2022/12/04 12:40:31;;;;;;;74.07;41.22;;;;;;;;;;5004199;28;20030;-76
2022/12/04 12:43:00;;;;;;;71.93;41.53;;;;;;;;;;5003430;28;20025;-76
2022/12/04 12:45:35;;;;;;;77.43;42.45;;;;;;;;;;5012814;28;20026;-76
2022/12/04 12:48:07;;;;;;;64.90;38.25;;;;;;;;;;4996672;28;20014;-77
2022/12/04 12:50:33;;;;;;;79.25;41.67;;;;;;;;;;5003054;28;20038;-77
2022/12/04 12:53:04;;;;;;;67.72;40.30;;;;;;;;;;4991072;28;20579;-75
2022/12/04 12:55:40;;;;;;;56.75;34.67;;;;;;;;;;5006612;28;20037;-77
2022/12/04 12:58:12;;;;;;;59.80;34.72;;;;;;;;;;4997964;28;20041;-75
2022/12/04 13:00:50;;;;;;;50.40;31.65;;;;;;;;;;5009725;28;20381;-76
2022/12/04 13:03:27;;;;;;;49.63;30.27;;;;;;;;;;4999030;28;20027;-79
2022/12/04 13:05:55;;;;;;;50.08;30.92;;;;;;;;;;5007652;28;20014;-77
2022/12/04 13:08:24;;;;;;;48.22;30.80;;;;;;;;;;5003230;28;20022;-76
2022/12/04 13:10:50;;;;;;;46.78;30.33;;;;;;;;;;4999394;28;20109;-76
2022/12/04 13:13:19;;;;;;;49.42;29.80;;;;;;;;;;4996409;28;20026;-76
2022/12/04 13:15:54;;;;;;;46.50;29.25;;;;;;;;;;5007903;28;20021;-76
2022/12/04 13:18:26;;;;;;;47.10;28.73;;;;;;;;;;5004688;28;20025;-76
2022/12/04 13:20:55;;;;;;;44.42;29.08;;;;;;;;;;5000029;28;20029;-76
2022/12/04 13:23:27;;;;;;;48.33;27.23;;;;;;;;;;4992796;28;20023;-76
2022/12/04 13:25:56;;;;;;;47.05;29.20;;;;;;;;;;5008824;28;20045;-77
2022/12/04 13:28:25;;;;;;;43.38;27.38;;;;;;;;;;4997452;28;20053;-77
2022/12/04 13:30:54;;;;;;;45.35;27.92;;;;;;;;;;4998147;28;20038;-78
2022/12/04 13:33:20;;;;;;;45.72;28.50;;;;;;;;;;4990867;28;20068;-77
2022/12/04 13:35:49;;;;;;;46.60;28.80;;;;;;;;;;4998068;28;20130;-79
2022/12/04 13:38:27;;;;;;;43.72;27.92;;;;;;;;;;4996360;28;20025;-77
2022/12/04 13:40:59;;;;;;;47.10;28.35;;;;;;;;;;4998991;28;20033;-79
2022/12/04 13:43:25;;;;;;;45.13;27.27;;;;;;;;;;5007505;28;20356;-77
2022/12/04 13:45:55;;;;;;;41.42;27.30;;;;;;;;;;5003738;28;20105;-77
2022/12/04 13:48:28;;;;;;;44.65;28.33;;;;;;;;;;5003453;28;20036;-76
2022/12/04 13:51:01;;;;;;;43.13;26.80;;;;;;;;;;5007392;28;20030;-76
2022/12/04 13:53:32;;;;;;;38.92;26.67;;;;;;;;;;5007961;28;20022;-77
2022/12/04 13:55:58;;;;;;;41.03;27.38;;;;;;;;;;5000136;28;20026;-76
2022/12/04 13:58:26;;;;;;;42.67;27.15;;;;;;;;;;4999542;28;20061;-76
2022/12/04 14:01:25;;;;;;;44.58;27.08;;;;;;;;;;4999012;28;20027;-75
2022/12/04 14:03:55;;;;;;;42.17;26.92;;;;;;;;;;5009792;28;20018;-75
2022/12/04 14:06:25;;;;;;;41.70;26.27;;;;;;;;;;5009981;28;20018;-75
2022/12/04 14:08:56;;;;;;;42.70;27.83;;;;;;;;;;5011568;28;20030;-76
2022/12/04 14:11:25;;;;;;;40.13;28.15;;;;;;;;;;5010754;28;20523;-75
2022/12/04 14:13:56;;;;;;;43.55;27.15;;;;;;;;;;5007567;28;20053;-78
2022/12/04 14:16:25;;;;;;;43.33;27.17;;;;;;;;;;4997339;28;20026;-79
2022/12/04 14:18:56;;;;;;;42.67;26.58;;;;;;;;;;5012950;28;20508;-76
2022/12/04 14:21:25;;;;;;;38.83;25.55;;;;;;;;;;5000053;28;20104;-76
2022/12/04 14:23:52;;;;;;;39.85;25.27;;;;;;;;;;5012250;28;20030;-76
2022/12/04 14:26:27;;;;;;;39.63;26.38;;;;;;;;;;5001887;28;20041;-76
2022/12/04 14:29:04;;;;;;;37.70;25.50;;;;;;;;;;5014100;28;20428;-74
2022/12/04 14:31:42;;;;;;;42.63;26.77;;;;;;;;;;4999194;28;20206;-75
2022/12/04 14:34:17;;;;;;;38.78;25.80;;;;;;;;;;5000919;28;20022;-75
2022/12/04 14:36:45;;;;;;;37.45;25.25;;;;;;;;;;5005070;28;20546;-77
2022/12/04 14:39:14;;;;;;;39.75;25.17;;;;;;;;;;5013924;28;20084;-76
2022/12/04 14:41:43;;;;;;;40.13;26.33;;;;;;;;;;5019510;28;20538;-76